createdAt,value
2022-08-11T00:04:23.708Z,101093.34
2022-08-11T00:09:24.196Z,101076.13
2022-08-11T00:14:37.386Z,101074.63
2022-08-11T00:20:11.711Z,101077.72
2022-08-11T00:25:01.581Z,101077.09
2022-08-11T00:29:59.012Z,101076.13
2022-08-11T00:35:55.613Z,101069.66
2022-08-11T00:40:32.548Z,101071.50
2022-08-11T00:46:09.114Z,101068.72
2022-08-11T00:51:57.600Z,101071.31
2022-08-11T00:57:37.655Z,101076.25
2022-08-11T01:03:07.065Z,101070.34
2022-08-11T01:08:24.359Z,101072.59
2022-08-11T01:13:58.804Z,101078.31
2022-08-11T01:20:45.021Z,101082.63
2022-08-11T01:25:21.782Z,101077.31
2022-08-11T01:30:59.969Z,101080.25
2022-08-11T01:35:59.479Z,101074.09
2022-08-11T01:41:01.664Z,101073.56
2022-08-11T01:46:10.874Z,101079.22
2022-08-11T01:51:34.781Z,101070.84
2022-08-11T01:56:49.545Z,101071.75
2022-08-11T02:02:10.715Z,101074.56
2022-08-11T02:07:28.703Z,101081.25
2022-08-11T02:12:27.613Z,101080.25
2022-08-11T02:17:57.780Z,101082.19
2022-08-11T02:23:59.615Z,101079.03
2022-08-11T02:29:18.711Z,101078.22
2022-08-11T02:34:59.290Z,101075.41
2022-08-11T02:39:59.486Z,101072.56
2022-08-11T02:45:14.446Z,101075.25
2022-08-11T02:50:26.514Z,101079.13
2022-08-11T02:55:48.673Z,101082.38
2022-08-11T03:01:06.492Z,101082.44
2022-08-11T03:06:05.964Z,101078.22
2022-08-11T03:11:50.231Z,101073.78
2022-08-11T03:17:00.399Z,101078.91
2022-08-11T03:22:17.079Z,101079.78
2022-08-11T03:27:32.065Z,101082.31
2022-08-11T03:32:37.604Z,101082.63
2022-08-11T03:37:56.875Z,101082.63
2022-08-11T03:43:03.565Z,101074.69
2022-08-11T03:48:41.216Z,101080.50
2022-08-11T03:54:01.333Z,101081.19
2022-08-11T03:59:31.046Z,101079.66
2022-08-11T04:05:12.598Z,101079.50
2022-08-11T04:10:15.218Z,101065.69
2022-08-11T04:16:00.712Z,101070.03
2022-08-11T04:21:29.216Z,101075.56
2022-08-11T04:26:56.521Z,101070.34
2022-08-11T04:32:36.893Z,101065.94
2022-08-11T04:38:16.315Z,101063.94
2022-08-11T04:44:02.618Z,101065.09
2022-08-11T04:49:34.181Z,101066.34
2022-08-11T04:55:04.288Z,101081.59
2022-08-11T05:00:31.282Z,101075.50
2022-08-11T05:05:56.303Z,101079.16
2022-08-11T05:11:07.657Z,101080.03
2022-08-11T05:16:30.447Z,101077.75
2022-08-11T05:21:45.878Z,101078.16
2022-08-11T05:27:12.806Z,101082.72
2022-08-11T05:32:31.880Z,101079.81
2022-08-11T05:37:34.425Z,101082.41
2022-08-11T05:42:52.381Z,101083.13
2022-08-11T05:48:08.397Z,101079.59
2022-08-11T05:53:29.540Z,101088.09
2022-08-11T05:58:42.566Z,101078.31
2022-08-11T06:04:04.704Z,101088.97
2022-08-11T06:09:02.206Z,101091.81
2022-08-11T06:14:02.315Z,101091.59
2022-08-11T06:19:00.217Z,101087.06
2022-08-11T06:23:57.078Z,101093.00
2022-08-11T06:28:59.297Z,101093.59
2022-08-11T06:34:11.387Z,101095.56
2022-08-11T06:39:25.843Z,101093.03
2022-08-11T06:44:55.300Z,101099.66
2022-08-11T06:50:10.324Z,101099.94
2022-08-11T06:55:56.112Z,101104.03
2022-08-11T07:00:33.464Z,101094.78
2022-08-11T07:05:53.869Z,101095.97
2022-08-11T07:11:50.804Z,101098.75
2022-08-11T07:16:49.351Z,101106.75
2022-08-11T07:22:05.998Z,101099.06
2022-08-11T07:27:24.709Z,101097.31
2022-08-11T07:32:33.110Z,101090.63
2022-08-11T07:37:33.367Z,101093.72
2022-08-11T07:42:37.328Z,101086.09
2022-08-11T07:47:55.075Z,101090.53
2022-08-11T07:52:54.011Z,101093.84
2022-08-11T07:58:15.348Z,101099.16
2022-08-11T08:03:32.763Z,101100.75
2022-08-11T08:08:48.429Z,101097.50
2022-08-11T08:14:04.396Z,101105.13
2022-08-11T08:19:00.933Z,101100.63
2022-08-11T08:23:58.628Z,101099.63
2022-08-11T08:29:16.503Z,101099.63
2022-08-11T08:34:13.592Z,101097.25
2022-08-11T08:39:13.054Z,101089.69
2022-08-11T08:44:37.203Z,101106.28
2022-08-11T08:49:40.385Z,101095.13
2022-08-11T08:54:39.639Z,101089.88
2022-08-11T08:59:48.766Z,101086.72
2022-08-11T09:04:47.413Z,101086.94
2022-08-11T09:09:53.562Z,101090.72
2022-08-11T09:15:06.322Z,101086.25
2022-08-11T09:20:08.330Z,101079.94
2022-08-11T09:25:25.757Z,101073.72
2022-08-11T09:30:27.614Z,101065.63
2022-08-11T09:35:27.675Z,101061.03
2022-08-11T09:40:31.496Z,101061.38
2022-08-11T09:45:29.373Z,101057.31
2022-08-11T09:50:39.316Z,101049.94
2022-08-11T09:55:38.215Z,101050.81
2022-08-11T10:00:40.336Z,101039.44
2022-08-11T10:05:56.935Z,101036.16
2022-08-11T10:10:55.416Z,101030.38
2022-08-11T10:16:14.592Z,101036.63
2022-08-11T10:21:25.221Z,101031.06
2022-08-11T10:26:42.878Z,101017.25
2022-08-11T10:32:02.910Z,101017.66
2022-08-11T10:37:04.144Z,101011.63
2022-08-11T10:42:30.210Z,101003.13
2022-08-11T10:47:36.683Z,100995.53
2022-08-11T10:52:51.824Z,101003.44
2022-08-11T10:58:07.244Z,100990.44
2022-08-11T11:03:23.553Z,100981.78
2022-08-11T11:14:09.988Z,100982.78
2022-08-11T11:19:10.039Z,100972.16
2022-08-11T11:24:37.407Z,100962.44
2022-08-11T11:29:54.577Z,100964.72
2022-08-11T11:35:10.956Z,100956.63
2022-08-11T11:40:13.232Z,100952.38
2022-08-11T11:45:14.960Z,100946.19
2022-08-11T11:50:35.633Z,100944.22
2022-08-11T11:55:33.418Z,100946.53
2022-08-11T12:00:49.310Z,100942.25
2022-08-11T12:05:45.987Z,100931.03
2022-08-11T12:11:13.186Z,100928.75
2022-08-11T12:16:34.409Z,100924.53
2022-08-11T12:21:29.550Z,100924.56
2022-08-11T12:26:44.957Z,100928.41
2022-08-11T12:32:01.924Z,100908.09
2022-08-11T12:37:05.624Z,100906.66
2022-08-11T12:42:21.009Z,100898.88
2022-08-11T12:47:20.029Z,100892.78
2022-08-11T12:52:26.411Z,100893.03
2022-08-11T12:58:10.540Z,100886.06
2022-08-11T13:03:27.722Z,100882.50
2022-08-11T13:08:26.577Z,100871.78
2022-08-11T13:13:54.868Z,100886.47
2022-08-11T13:18:42.870Z,100867.47
2022-08-11T13:23:40.397Z,100872.34
2022-08-11T13:28:56.656Z,100871.91
2022-08-11T13:33:54.075Z,100865.97
2022-08-11T13:38:51.198Z,100858.06
2022-08-11T13:43:47.659Z,100851.00
2022-08-11T13:48:44.703Z,100842.06
2022-08-11T13:53:43.614Z,100838.75
2022-08-11T13:58:41.133Z,100838.66
2022-08-11T14:04:30.018Z,100827.06
2022-08-11T14:08:59.281Z,100826.03
2022-08-11T14:13:58.446Z,100820.78
2022-08-11T14:19:00.157Z,100813.94
2022-08-11T14:23:59.347Z,100814.00
2022-08-11T14:29:02.784Z,100802.44
2022-08-11T14:34:02.915Z,100808.22
2022-08-11T14:39:03.229Z,100805.88
2022-08-11T14:44:18.513Z,100800.56
2022-08-11T14:49:15.411Z,100797.84
2022-08-11T14:54:31.398Z,100792.88
2022-08-11T14:59:27.841Z,100793.63
2022-08-11T15:04:35.759Z,100794.84
2022-08-11T15:09:36.233Z,100783.22
2022-08-11T15:14:55.820Z,100785.72
2022-08-11T15:20:12.093Z,100784.06
2022-08-11T15:25:09.370Z,100772.44
2022-08-11T15:30:33.381Z,100775.19
2022-08-11T15:35:50.925Z,100768.31
2022-08-11T15:41:07.624Z,100755.00
2022-08-11T15:46:18.015Z,100749.69
2022-08-11T15:51:25.150Z,100751.38
2022-08-11T15:56:25.763Z,100745.84
2022-08-11T16:01:42.936Z,100746.66
2022-08-11T16:06:57.528Z,100746.06
2022-08-11T16:11:56.757Z,100735.88
2022-08-11T16:16:54.172Z,100726.50
2022-08-11T16:21:53.018Z,100725.41
2022-08-11T16:27:10.440Z,100724.88
2022-08-11T16:32:16.939Z,100719.22
2022-08-11T16:37:33.985Z,100719.09
2022-08-11T16:43:02.422Z,100710.28
2022-08-11T16:48:33.070Z,100703.66
2022-08-11T16:53:50.144Z,100707.38
2022-08-11T16:59:00.930Z,100694.63
2022-08-11T17:04:31.216Z,100685.97
2022-08-11T17:09:50.967Z,100691.59
2022-08-11T17:14:55.076Z,100692.66
2022-08-11T17:20:40.683Z,100682.97
2022-08-11T17:25:12.998Z,100685.25
2022-08-11T17:30:10.980Z,100688.25
2022-08-11T17:35:30.840Z,100682.75
2022-08-11T17:40:28.312Z,100684.06
2022-08-11T17:45:44.073Z,100684.63
2022-08-11T17:50:41.317Z,100686.94
2022-08-11T17:55:58.495Z,100687.59
2022-08-11T18:00:56.063Z,100681.50
2022-08-11T18:05:52.571Z,100686.97
2022-08-11T18:11:08.720Z,100689.88
2022-08-11T18:16:24.040Z,100692.19
2022-08-11T18:21:39.693Z,100699.34
2022-08-11T18:26:54.925Z,100701.41
2022-08-11T18:32:12.437Z,100707.97
2022-08-11T18:37:41.890Z,100707.94
2022-08-11T18:43:00.609Z,100722.69
2022-08-11T18:48:21.063Z,100726.34
2022-08-11T18:53:37.354Z,100725.34
2022-08-11T18:58:55.537Z,100739.84
2022-08-11T19:04:17.473Z,100742.06
2022-08-11T19:09:36.881Z,100748.81
2022-08-11T19:14:54.048Z,100764.69
2022-08-11T19:20:10.155Z,100770.44
2022-08-11T19:25:27.296Z,100782.59
2022-08-11T19:30:43.153Z,100782.63
2022-08-11T19:36:00.388Z,100788.31
2022-08-11T19:41:51.833Z,100784.53
2022-08-11T19:46:56.622Z,100792.91
2022-08-11T19:52:12.601Z,100789.59
2022-08-11T19:57:28.947Z,100781.00
2022-08-11T20:02:44.274Z,100778.91
2022-08-11T20:08:01.323Z,100787.31
2022-08-11T20:13:21.238Z,100779.38
2022-08-11T20:18:37.712Z,100777.69
2022-08-11T20:23:53.028Z,100785.06
2022-08-11T20:29:10.333Z,100773.91
2022-08-11T20:34:27.446Z,100775.03
2022-08-11T20:39:44.006Z,100775.69
2022-08-11T20:45:00.933Z,100784.84
2022-08-11T20:50:20.371Z,100771.91
2022-08-11T20:55:46.272Z,100776.94
2022-08-11T21:01:10.523Z,100775.69
2022-08-11T21:06:36.585Z,100781.78
2022-08-11T21:11:54.603Z,100776.16
2022-08-11T21:17:27.106Z,100778.94
2022-08-11T21:22:59.366Z,100786.16
2022-08-11T21:28:25.236Z,100787.22
2022-08-11T21:33:40.383Z,100784.19
2022-08-11T21:38:56.265Z,100781.69
2022-08-11T21:44:12.835Z,100780.72
2022-08-11T21:49:30.025Z,100784.28
2022-08-11T21:54:46.312Z,100778.75
2022-08-11T22:00:11.385Z,100794.50
2022-08-11T22:05:28.496Z,100790.56
2022-08-11T22:10:43.548Z,100797.69
2022-08-11T22:15:58.798Z,100791.97
2022-08-11T22:21:14.229Z,100789.13
2022-08-11T22:26:53.259Z,100784.44
2022-08-11T22:32:09.369Z,100787.88
2022-08-11T22:37:27.523Z,100790.44
2022-08-11T22:42:43.138Z,100780.16
2022-08-11T22:48:02.574Z,100783.03
2022-08-11T22:53:19.899Z,100789.63
2022-08-11T22:58:36.651Z,100786.94
2022-08-11T23:03:52.459Z,100783.56
2022-08-11T23:09:08.117Z,100782.22
2022-08-11T23:14:23.628Z,100776.81
2022-08-11T23:20:10.469Z,100776.16
2022-08-11T23:25:17.744Z,100777.66
2022-08-11T23:30:33.292Z,100772.97
2022-08-11T23:35:55.526Z,100774.13
2022-08-11T23:41:13.661Z,100767.88
2022-08-11T23:46:29.180Z,100766.38
2022-08-11T23:51:45.768Z,100768.72
2022-08-11T23:57:01.294Z,100760.63
